Time;durP1;ratioP1;P1;durP2;ratioP2;P2;SDS_P1;SDS_P2;PMS_P1;PMS_P2;Temp;Humidity;BMP_temperature;BMP_pressure;BME280_temperature;BME280_humidity;BME280_pressure;Samples;Min_cycle;Max_cycle;Signal;HPM_P1;HPM_P2
2023/01/06 00:00:42;;;;;;;6.27;2.90;;;5.60;99.90;;;;;;4981638;28;20231;-82
2023/01/06 00:03:10;;;;;;;8.23;3.13;;;5.60;99.90;;;;;;4970315;28;20221;-81
2023/01/06 00:05:36;;;;;;;10.23;2.43;;;5.60;99.90;;;;;;4989836;28;20241;-82
2023/01/06 00:08:03;;;;;;;4.67;2.63;;;5.60;99.90;;;;;;4980115;28;20889;-82
2023/01/06 00:10:30;;;;;;;6.63;2.47;;;5.60;99.90;;;;;;4988450;28;20320;-80
2023/01/06 00:12:57;;;;;;;4.80;2.50;;;5.60;99.90;;;;;;4967757;28;20299;-80
2023/01/06 00:15:24;;;;;;;7.30;2.40;;;5.70;99.90;;;;;;4960370;28;20244;-81
2023/01/06 00:17:52;;;;;;;4.63;2.63;;;5.60;99.90;;;;;;4985330;28;20526;-81
2023/01/06 00:20:19;;;;;;;5.77;2.53;;;5.70;99.90;;;;;;4968065;28;20495;-81
2023/01/06 00:22:46;;;;;;;7.47;2.70;;;5.70;99.90;;;;;;4977442;28;20236;-82
2023/01/06 00:25:13;;;;;;;11.33;3.97;;;5.70;99.90;;;;;;4985022;28;20237;-81
2023/01/06 00:27:40;;;;;;;7.03;3.13;;;5.70;99.90;;;;;;4981541;28;20697;-80
2023/01/06 00:30:08;;;;;;;9.53;3.87;;;5.70;99.90;;;;;;4972080;28;20217;-81
2023/01/06 00:32:35;;;;;;;11.40;4.47;;;5.70;99.90;;;;;;4972742;28;20222;-80
2023/01/06 00:35:03;;;;;;;10.93;4.87;;;5.70;99.90;;;;;;4973001;28;20749;-80
2023/01/06 00:37:30;;;;;;;12.60;5.40;;;5.70;99.90;;;;;;4979235;28;20655;-80
2023/01/06 00:39:57;;;;;;;17.53;5.53;;;5.70;99.90;;;;;;4975382;28;20336;-81
2023/01/06 00:42:24;;;;;;;15.53;6.30;;;5.80;99.90;;;;;;4987183;28;20331;-80
2023/01/06 00:44:51;;;;;;;15.03;5.90;;;5.80;99.90;;;;;;4988263;28;20227;-81
2023/01/06 00:47:19;;;;;;;12.90;6.23;;;5.80;99.90;;;;;;4971364;28;20229;-81
2023/01/06 00:49:45;;;;;;;12.47;6.10;;;5.80;99.90;;;;;;4967411;28;20232;-83
2023/01/06 00:52:14;;;;;;;10.27;5.83;;;5.80;99.90;;;;;;4965598;28;20218;-81
2023/01/06 00:54:41;;;;;;;11.80;6.20;;;5.90;99.90;;;;;;4975788;28;20742;-83
2023/01/06 00:57:09;;;;;;;14.77;6.23;;;5.80;99.90;;;;;;4983779;28;20236;-81
2023/01/06 00:59:36;;;;;;;18.37;7.60;;;5.90;99.90;;;;;;4971143;28;20229;-81
2023/01/06 01:02:03;;;;;;;13.97;6.07;;;5.90;99.90;;;;;;4973036;28;20317;-82
2023/01/06 01:04:30;;;;;;;14.83;6.67;;;5.90;99.90;;;;;;4970499;28;20259;-81
2023/01/06 01:07:00;;;;;;;13.10;6.63;;;5.80;99.90;;;;;;4964289;28;20280;-82
2023/01/06 01:09:33;;;;;;;16.83;6.40;;;5.90;99.90;;;;;;4967862;28;20214;-80
2023/01/06 01:12:12;;;;;;;13.63;6.80;;;5.80;99.90;;;;;;4971143;28;20249;-81
2023/01/06 01:14:43;;;;;;;17.17;7.27;;;5.90;99.90;;;;;;4960921;28;20275;-81
2023/01/06 01:17:12;;;;;;;15.20;7.23;;;5.90;99.90;;;;;;4980839;28;20465;-80
2023/01/06 01:19:39;;;;;;;15.27;7.50;;;5.90;99.90;;;;;;4978094;28;20229;-80
2023/01/06 01:22:08;;;;;;;20.60;8.00;;;5.80;99.90;;;;;;4989669;28;20252;-81
2023/01/06 01:24:38;;;;;;;17.40;8.13;;;5.90;99.90;;;;;;4985401;28;20228;-81
2023/01/06 01:27:06;;;;;;;17.47;7.60;;;5.90;99.90;;;;;;4989224;28;20225;-82
2023/01/06 01:29:33;;;;;;;15.17;8.00;;;5.80;99.90;;;;;;4989824;28;21294;-80
2023/01/06 01:32:01;;;;;;;18.50;8.40;;;5.80;99.90;;;;;;4967338;28;20234;-80
2023/01/06 01:34:28;;;;;;;20.13;8.70;;;5.80;99.90;;;;;;4985542;28;20230;-82
2023/01/06 01:36:56;;;;;;;15.27;7.97;;;5.80;99.90;;;;;;4969116;28;20230;-82
2023/01/06 01:39:25;;;;;;;23.80;8.50;;;5.80;99.90;;;;;;4983454;28;20220;-79
2023/01/06 01:41:54;;;;;;;16.33;8.17;;;5.90;99.90;;;;;;4985284;28;20265;-80
2023/01/06 01:44:54;;;;;;;19.17;8.77;;;5.80;99.90;;;;;;4966279;28;20230;-80
2023/01/06 01:47:30;;;;;;;19.57;8.70;;;5.80;99.90;;;;;;4980318;28;20252;-81
2023/01/06 01:50:05;;;;;;;18.60;10.07;;;5.80;99.90;;;;;;4988357;28;20235;-80
2023/01/06 01:52:33;;;;;;;19.33;9.83;;;5.80;99.90;;;;;;4962735;28;20225;-80
2023/01/06 01:55:01;;;;;;;18.93;9.40;;;5.80;99.90;;;;;;4980356;28;20735;-79
2023/01/06 01:57:33;;;;;;;17.27;9.17;;;5.80;99.90;;;;;;4984546;28;20321;-81
2023/01/06 02:00:02;;;;;;;17.60;9.40;;;5.80;99.90;;;;;;4984622;28;20280;-80
2023/01/06 02:02:41;;;;;;;14.70;8.97;;;5.80;99.90;;;;;;4982789;28;20284;-80
2023/01/06 02:05:09;;;;;;;17.27;9.17;;;5.80;99.90;;;;;;4966318;28;20312;-82
2023/01/06 02:07:38;;;;;;;15.83;8.73;;;5.80;99.90;;;;;;4987496;28;20217;-80
2023/01/06 02:10:10;;;;;;;14.10;8.70;;;5.80;99.90;;;;;;4982051;28;20294;-81
2023/01/06 02:12:39;;;;;;;15.90;9.60;;;5.80;99.90;;;;;;4969738;28;20224;-82
2023/01/06 02:15:15;;;;;;;15.53;9.47;;;5.80;99.90;;;;;;4964967;28;20248;-81
2023/01/06 02:17:59;;;;;;;14.80;9.00;;;5.80;99.90;;;;;;4989933;28;20258;-82
2023/01/06 02:20:47;;;;;;;14.10;9.57;;;5.90;99.90;;;;;;4986764;28;20222;-82
2023/01/06 02:23:46;;;;;;;16.40;8.70;;;5.90;99.90;;;;;;4970010;28;20230;-82
2023/01/06 02:26:47;;;;;;;14.93;8.87;;;5.90;99.90;;;;;;4967837;28;20893;-84
2023/01/06 02:29:57;;;;;;;14.80;8.67;;;5.90;99.90;;;;;;4965201;28;20333;-84
2023/01/06 02:32:44;;;;;;;13.53;7.90;;;5.90;99.90;;;;;;4888652;29;21051;-84
2023/01/06 02:35:30;;;;;;;10.50;8.00;;;5.90;99.90;;;;;;4898883;29;20761;-86
2023/01/06 02:38:08;;;;;;;13.00;7.80;;;5.80;99.90;;;;;;4946508;28;20856;-86
2023/01/06 02:40:50;;;;;;;12.70;7.33;;;5.90;99.90;;;;;;4971306;28;20753;-85
2023/01/06 02:43:28;;;;;;;12.43;7.67;;;5.90;99.90;;;;;;4965923;28;20303;-83
2023/01/06 02:46:08;;;;;;;11.27;7.43;;;5.80;99.90;;;;;;4967255;28;20233;-83
2023/01/06 02:48:44;;;;;;;12.60;7.40;;;5.90;99.90;;;;;;4974940;28;20774;-84
2023/01/06 02:51:17;;;;;;;13.23;8.07;;;5.90;99.90;;;;;;4964816;28;20281;-85
2023/01/06 02:53:53;;;;;;;10.07;7.00;;;5.90;99.90;;;;;;4961567;28;20284;-85
2023/01/06 02:56:24;;;;;;;11.37;7.13;;;5.90;99.90;;;;;;4963701;28;20228;-85
2023/01/06 02:58:58;;;;;;;10.97;6.50;;;5.90;99.90;;;;;;4968302;28;20251;-84
2023/01/06 03:01:31;;;;;;;9.93;6.47;;;5.90;99.90;;;;;;4966912;28;20241;-84
2023/01/06 03:04:03;;;;;;;12.00;6.83;;;6.00;99.90;;;;;;4970325;28;20269;-85
2023/01/06 03:06:32;;;;;;;10.27;7.40;;;6.00;99.90;;;;;;4962507;28;20227;-84
2023/01/06 03:09:03;;;;;;;11.83;7.97;;;6.00;99.90;;;;;;4978050;28;20229;-83
2023/01/06 03:11:38;;;;;;;14.50;8.63;;;6.00;99.90;;;;;;4970533;28;20233;-82
2023/01/06 03:14:12;;;;;;;15.10;8.77;;;6.00;99.90;;;;;;4973621;28;20218;-84
2023/01/06 03:16:39;;;;;;;15.90;9.10;;;6.00;99.90;;;;;;4972203;28;20226;-84
2023/01/06 03:19:08;;;;;;;15.47;9.90;;;6.10;99.90;;;;;;4972617;28;20221;-85
2023/01/06 03:21:40;;;;;;;14.93;9.93;;;6.10;99.90;;;;;;4977689;28;20232;-83
2023/01/06 03:24:09;;;;;;;15.53;9.50;;;6.20;99.90;;;;;;4972689;28;20222;-84
2023/01/06 03:26:40;;;;;;;13.97;9.93;;;6.10;99.90;;;;;;4989353;28;20224;-83
2023/01/06 03:29:10;;;;;;;19.83;9.70;;;6.20;99.90;;;;;;4974385;28;20223;-83
2023/01/06 03:31:44;;;;;;;13.23;8.87;;;6.20;99.90;;;;;;4985486;28;20321;-85
2023/01/06 03:34:20;;;;;;;14.50;9.87;;;6.20;99.90;;;;;;4991181;28;20230;-84
2023/01/06 03:36:52;;;;;;;17.73;9.97;;;6.30;99.90;;;;;;4985737;28;20233;-84
2023/01/06 03:39:25;;;;;;;20.77;10.90;;;6.30;99.90;;;;;;4985689;28;20222;-84
2023/01/06 03:44:50;;;;;;;16.80;10.80;;;6.30;99.90;;;;;;4966387;28;20233;-83
2023/01/06 03:47:26;;;;;;;15.77;10.27;;;6.30;99.90;;;;;;4971046;28;20215;-83
2023/01/06 03:50:01;;;;;;;16.57;10.50;;;6.40;99.90;;;;;;4982018;28;20238;-83
2023/01/06 03:52:31;;;;;;;19.60;11.00;;;6.40;99.90;;;;;;4969855;28;20226;-82
2023/01/06 03:55:05;;;;;;;18.10;10.73;;;6.40;99.90;;;;;;4986062;28;20233;-82
2023/01/06 03:57:35;;;;;;;17.73;11.13;;;6.40;99.90;;;;;;4964706;28;20227;-81
2023/01/06 04:00:09;;;;;;;19.80;12.03;;;6.50;99.90;;;;;;4980887;28;20230;-81
2023/01/06 04:02:45;;;;;;;20.80;12.80;;;6.50;99.90;;;;;;4980618;28;20221;-81
2023/01/06 04:05:20;;;;;;;17.57;10.90;;;6.50;99.90;;;;;;4965449;28;20324;-82
2023/01/06 04:07:49;;;;;;;19.23;11.90;;;6.50;99.90;;;;;;4973264;28;20256;-83
2023/01/06 04:10:19;;;;;;;20.63;11.90;;;6.60;99.90;;;;;;4981262;28;20218;-82
2023/01/06 04:12:47;;;;;;;18.13;11.30;;;6.60;99.90;;;;;;4971245;28;20232;-82
2023/01/06 04:15:20;;;;;;;19.57;11.97;;;6.60;99.90;;;;;;4970798;28;20725;-82
2023/01/06 04:17:49;;;;;;;19.57;11.47;;;6.70;99.90;;;;;;4970159;28;20301;-83
2023/01/06 04:20:22;;;;;;;21.13;12.87;;;6.70;99.90;;;;;;4973034;28;20223;-83
2023/01/06 04:22:54;;;;;;;18.83;11.53;;;6.70;99.90;;;;;;4979226;28;20242;-83
2023/01/06 04:25:21;;;;;;;23.53;12.60;;;6.80;99.90;;;;;;4972309;28;20243;-82
2023/01/06 04:27:48;;;;;;;22.97;12.63;;;6.80;99.90;;;;;;4973078;28;20224;-84
2023/01/06 04:30:15;;;;;;;19.83;11.27;;;6.80;99.90;;;;;;4982895;28;20961;-82
2023/01/06 04:32:43;;;;;;;22.40;12.00;;;6.80;99.90;;;;;;4966323;28;20265;-83
2023/01/06 04:35:10;;;;;;;19.97;12.20;;;6.80;99.90;;;;;;4985327;28;20231;-82
2023/01/06 04:37:40;;;;;;;19.67;11.67;;;6.90;99.90;;;;;;4979045;28;20222;-82
2023/01/06 04:40:08;;;;;;;18.33;12.30;;;6.90;99.90;;;;;;4992212;28;20251;-83
2023/01/06 04:45:15;;;;;;;23.03;12.57;;;7.00;99.90;;;;;;4983376;28;20230;-85
2023/01/06 04:47:42;;;;;;;22.60;12.70;;;7.00;99.90;;;;;;4969462;28;20286;-85
2023/01/06 04:50:09;;;;;;;22.47;12.53;;;7.00;99.90;;;;;;4968396;28;20254;-84
2023/01/06 04:52:36;;;;;;;22.43;12.57;;;7.10;99.90;;;;;;4985915;28;20352;-84
2023/01/06 04:55:05;;;;;;;22.87;13.20;;;7.10;99.90;;;;;;4969893;28;20837;-83
2023/01/06 04:57:32;;;;;;;18.57;12.10;;;7.10;99.90;;;;;;4986193;28;20749;-83
2023/01/06 04:59:58;;;;;;;20.87;12.73;;;7.10;99.90;;;;;;4962459;28;20247;-84
2023/01/06 05:02:25;;;;;;;22.90;12.80;;;7.20;99.90;;;;;;4966920;28;20229;-83
2023/01/06 05:04:52;;;;;;;22.47;13.67;;;7.20;99.90;;;;;;4983929;28;20481;-82
2023/01/06 05:07:19;;;;;;;20.00;12.87;;;7.30;99.90;;;;;;4986198;28;20224;-83
2023/01/06 05:09:45;;;;;;;22.17;13.40;;;7.30;99.90;;;;;;4971978;28;20287;-83
2023/01/06 05:12:13;;;;;;;23.73;14.20;;;7.30;99.90;;;;;;4987576;28;20223;-83
2023/01/06 05:14:40;;;;;;;23.97;13.60;;;7.30;99.90;;;;;;4965041;28;20225;-83
2023/01/06 05:17:07;;;;;;;23.40;12.77;;;7.40;99.90;;;;;;4958522;28;20677;-83
2023/01/06 05:19:33;;;;;;;21.73;14.37;;;7.40;99.90;;;;;;4983433;28;20230;-82
2023/01/06 05:22:00;;;;;;;20.13;13.50;;;7.40;99.90;;;;;;4981796;28;20238;-83
2023/01/06 05:24:27;;;;;;;22.90;13.37;;;7.50;99.90;;;;;;4976124;28;20233;-83
2023/01/06 05:26:54;;;;;;;34.57;14.03;;;7.50;99.90;;;;;;4980683;28;20235;-82
2023/01/06 05:29:23;;;;;;;22.10;14.20;;;7.50;99.90;;;;;;4962140;28;20222;-83
2023/01/06 05:31:49;;;;;;;25.53;13.50;;;7.50;99.90;;;;;;4962050;28;20882;-83
2023/01/06 05:34:16;;;;;;;23.93;14.80;;;7.50;99.90;;;;;;4961878;28;20250;-83
2023/01/06 05:36:43;;;;;;;22.53;14.10;;;7.60;99.90;;;;;;4959956;28;20229;-83
2023/01/06 05:39:10;;;;;;;22.83;13.27;;;7.60;99.90;;;;;;4963037;28;20322;-82
2023/01/06 05:41:36;;;;;;;23.17;14.87;;;7.60;99.90;;;;;;4965242;28;20323;-83
2023/01/06 05:44:03;;;;;;;24.57;14.50;;;7.60;99.90;;;;;;4976053;28;20262;-82
2023/01/06 05:46:31;;;;;;;22.90;13.83;;;7.60;99.90;;;;;;4970931;28;20406;-83
2023/01/06 05:48:59;;;;;;;22.50;13.93;;;7.70;99.90;;;;;;4980588;28;20314;-84
2023/01/06 05:51:26;;;;;;;24.13;14.00;;;7.70;99.90;;;;;;4977672;28;20222;-83
2023/01/06 05:53:53;;;;;;;26.10;14.80;;;7.70;99.90;;;;;;4960686;28;20281;-83
2023/01/06 05:56:21;;;;;;;26.47;14.07;;;7.70;99.90;;;;;;4977161;28;20252;-83
2023/01/06 05:58:49;;;;;;;24.47;14.87;;;7.80;99.90;;;;;;4976182;28;20767;-81
2023/01/06 06:01:19;;;;;;;25.63;15.77;;;7.80;99.90;;;;;;4979850;28;20259;-81
2023/01/06 06:03:47;;;;;;;18.93;14.00;;;7.80;99.90;;;;;;4976601;28;20252;-81
2023/01/06 06:06:14;;;;;;;25.17;15.17;;;7.80;99.90;;;;;;4981749;28;20307;-82
2023/01/06 06:08:41;;;;;;;22.40;14.10;;;7.90;99.90;;;;;;4969995;28;20309;-82
2023/01/06 06:11:10;;;;;;;27.03;14.10;;;7.90;99.90;;;;;;4960014;28;20288;-81
2023/01/06 06:13:37;;;;;;;22.27;13.70;;;8.00;99.90;;;;;;4964815;28;20645;-81
2023/01/06 06:16:08;;;;;;;22.43;13.63;;;8.00;99.90;;;;;;4975531;28;20227;-82
2023/01/06 06:18:41;;;;;;;21.20;13.90;;;8.10;99.90;;;;;;4961517;28;20901;-82
2023/01/06 06:21:10;;;;;;;25.43;14.30;;;8.00;99.90;;;;;;4981420;28;20309;-81
2023/01/06 06:23:37;;;;;;;22.77;13.87;;;8.10;99.90;;;;;;4984684;28;20757;-82
2023/01/06 06:26:05;;;;;;;19.33;13.27;;;8.10;99.90;;;;;;4968488;28;20223;-81
2023/01/06 06:28:32;;;;;;;21.47;13.03;;;8.10;99.90;;;;;;4989743;28;20223;-81
2023/01/06 06:31:04;;;;;;;22.73;14.80;;;8.10;99.90;;;;;;4981134;28;20227;-82
2023/01/06 06:33:31;;;;;;;19.60;14.10;;;8.10;99.90;;;;;;4990771;28;20264;-82
2023/01/06 06:35:57;;;;;;;19.30;13.40;;;8.20;99.90;;;;;;4985943;28;20230;-82
2023/01/06 06:38:25;;;;;;;20.07;14.27;;;8.20;99.90;;;;;;4966115;28;20244;-82
2023/01/06 06:40:52;;;;;;;21.70;14.07;;;8.20;99.90;;;;;;4984322;28;20229;-81
2023/01/06 06:43:19;;;;;;;21.80;14.60;;;8.20;99.90;;;;;;4981265;28;21217;-82
2023/01/06 06:45:46;;;;;;;23.37;14.93;;;8.30;99.90;;;;;;4971194;28;20735;-82
2023/01/06 06:48:16;;;;;;;21.27;15.03;;;8.20;99.90;;;;;;4973958;28;20226;-82
2023/01/06 06:50:43;;;;;;;19.87;14.20;;;8.30;99.90;;;;;;4975284;28;20226;-82
2023/01/06 06:53:10;;;;;;;20.83;14.13;;;8.30;99.90;;;;;;4988572;28;20232;-82
2023/01/06 06:55:39;;;;;;;22.10;14.93;;;8.30;99.90;;;;;;4972138;28;20257;-82
2023/01/06 06:58:05;;;;;;;20.33;14.53;;;8.30;99.90;;;;;;4982853;28;20239;-82
2023/01/06 07:00:32;;;;;;;19.40;14.40;;;8.30;99.90;;;;;;4972404;28;20227;-82
2023/01/06 07:02:59;;;;;;;20.50;14.27;;;8.30;99.90;;;;;;4984922;28;20279;-82
2023/01/06 07:05:26;;;;;;;19.70;14.53;;;8.30;99.90;;;;;;4979279;28;20227;-82
2023/01/06 07:07:52;;;;;;;18.60;14.20;;;8.30;99.90;;;;;;4970306;28;20221;-82
2023/01/06 07:10:19;;;;;;;20.80;14.97;;;8.40;99.90;;;;;;4964808;28;20319;-82
2023/01/06 07:12:47;;;;;;;19.17;15.23;;;8.40;99.90;;;;;;4983544;28;20241;-81
2023/01/06 07:15:14;;;;;;;17.87;13.70;;;8.40;99.90;;;;;;4968491;28;20273;-81
2023/01/06 07:17:41;;;;;;;18.67;14.23;;;8.40;99.90;;;;;;4972140;28;20845;-81
2023/01/06 07:20:09;;;;;;;19.60;14.00;;;8.40;99.90;;;;;;4990878;28;20305;-81
2023/01/06 07:22:37;;;;;;;20.97;14.17;;;8.40;99.90;;;;;;4987656;28;20252;-81
2023/01/06 07:25:05;;;;;;;16.43;13.60;;;8.40;99.90;;;;;;4978051;28;20569;-82
2023/01/06 07:27:32;;;;;;;19.33;14.00;;;8.30;99.90;;;;;;4980870;28;20315;-81
2023/01/06 07:30:05;;;;;;;17.80;14.07;;;8.30;99.90;;;;;;4991257;28;20681;-82
2023/01/06 07:32:31;;;;;;;17.67;13.13;;;8.30;99.90;;;;;;4986925;28;20235;-81
2023/01/06 07:34:58;;;;;;;17.13;13.00;;;8.40;99.90;;;;;;4970038;28;20750;-81
2023/01/06 07:37:25;;;;;;;17.87;13.33;;;8.30;99.90;;;;;;4979938;28;20236;-81
2023/01/06 07:39:51;;;;;;;17.40;13.83;;;8.30;99.90;;;;;;4968829;28;20240;-81
2023/01/06 07:42:18;;;;;;;18.43;13.70;;;8.30;99.90;;;;;;4977482;28;20216;-81
2023/01/06 07:44:45;;;;;;;18.63;13.73;;;8.30;99.90;;;;;;4969336;28;20932;-81
2023/01/06 07:47:13;;;;;;;18.30;13.43;;;8.30;99.90;;;;;;4971377;28;20231;-81
2023/01/06 07:49:40;;;;;;;20.13;13.47;;;8.30;99.90;;;;;;4988173;28;20228;-82
2023/01/06 07:52:08;;;;;;;15.50;13.23;;;8.30;99.90;;;;;;4971795;28;20239;-81
2023/01/06 07:54:34;;;;;;;20.80;13.83;;;8.30;99.90;;;;;;4969004;28;20227;-81
2023/01/06 07:57:01;;;;;;;19.67;13.67;;;8.30;99.90;;;;;;4964769;28;20225;-81
2023/01/06 07:59:28;;;;;;;17.60;13.50;;;8.30;99.90;;;;;;4979085;28;20285;-82
2023/01/06 08:01:54;;;;;;;19.03;14.03;;;8.30;99.90;;;;;;4985946;28;20682;-82
2023/01/06 08:04:22;;;;;;;17.03;13.33;;;8.20;99.90;;;;;;4968351;28;20839;-82
2023/01/06 08:06:49;;;;;;;18.80;13.97;;;8.20;99.90;;;;;;4981066;28;20233;-82
2023/01/06 08:09:16;;;;;;;18.73;13.63;;;8.20;99.90;;;;;;4965555;28;20233;-82
2023/01/06 08:11:43;;;;;;;18.93;13.03;;;8.20;99.90;;;;;;4968843;28;20224;-82
2023/01/06 08:14:11;;;;;;;19.23;13.77;;;8.20;99.90;;;;;;4981791;28;20219;-82
2023/01/06 08:16:38;;;;;;;17.70;13.57;;;8.20;99.90;;;;;;4980827;28;20225;-81
2023/01/06 08:19:05;;;;;;;17.93;13.50;;;8.20;99.90;;;;;;4980638;28;20310;-81
2023/01/06 08:21:33;;;;;;;18.87;14.30;;;8.20;99.90;;;;;;4970479;28;20316;-82
2023/01/06 08:23:59;;;;;;;18.03;13.03;;;8.20;99.90;;;;;;4968738;28;20247;-82
2023/01/06 08:26:26;;;;;;;14.57;12.40;;;8.20;99.90;;;;;;4969437;28;20261;-82
2023/01/06 08:28:54;;;;;;;13.77;12.27;;;8.20;99.90;;;;;;4985259;28;20219;-82
2023/01/06 08:31:21;;;;;;;16.63;12.77;;;8.20;99.90;;;;;;4973241;28;20784;-82
2023/01/06 08:33:48;;;;;;;13.90;11.47;;;8.20;99.90;;;;;;4984367;28;20816;-82
2023/01/06 08:36:17;;;;;;;16.47;12.27;;;8.30;99.90;;;;;;4984305;28;20391;-81
2023/01/06 08:38:50;;;;;;;15.23;11.30;;;8.30;99.90;;;;;;4972890;28;20223;-82
2023/01/06 08:41:17;;;;;;;16.33;11.27;;;8.40;99.90;;;;;;4981991;28;20662;-82
2023/01/06 08:43:45;;;;;;;14.37;12.10;;;8.30;99.90;;;;;;4978517;28;20233;-82
2023/01/06 08:46:13;;;;;;;12.30;10.87;;;8.40;99.90;;;;;;4970008;28;20239;-81
2023/01/06 08:48:40;;;;;;;13.17;10.40;;;8.40;99.90;;;;;;4983523;28;20221;-82
2023/01/06 08:51:10;;;;;;;11.93;10.03;;;8.30;99.90;;;;;;4979583;28;20317;-82
2023/01/06 08:53:36;;;;;;;14.33;10.17;;;8.40;99.90;;;;;;4966582;28;20233;-82
2023/01/06 08:56:05;;;;;;;13.13;9.70;;;8.40;99.90;;;;;;4979426;28;20232;-82
2023/01/06 08:58:31;;;;;;;13.00;9.73;;;8.40;99.90;;;;;;4965441;28;20225;-81
2023/01/06 09:00:58;;;;;;;11.47;9.50;;;8.40;99.90;;;;;;4964913;28;20219;-81
2023/01/06 09:03:25;;;;;;;11.57;9.40;;;8.40;99.90;;;;;;4969500;28;20229;-82
2023/01/06 09:05:55;;;;;;;12.97;9.37;;;8.40;99.90;;;;;;4971180;28;20228;-81
2023/01/06 09:08:22;;;;;;;11.70;8.90;;;8.40;99.90;;;;;;4982813;28;20712;-82
2023/01/06 09:10:49;;;;;;;10.00;8.20;;;8.40;99.90;;;;;;4981687;28;20239;-82
2023/01/06 09:13:17;;;;;;;9.53;7.73;;;8.40;99.90;;;;;;4977694;28;22320;-82
2023/01/06 09:15:47;;;;;;;10.97;8.47;;;8.40;99.90;;;;;;4968028;28;20237;-82
2023/01/06 09:18:14;;;;;;;10.37;7.83;;;8.40;99.90;;;;;;4967298;28;20296;-82
2023/01/06 09:20:41;;;;;;;7.90;7.10;;;8.40;99.90;;;;;;4971884;28;20236;-82
2023/01/06 09:23:07;;;;;;;9.23;7.00;;;8.40;99.90;;;;;;4967867;28;20223;-81
2023/01/06 09:25:34;;;;;;;8.03;6.90;;;8.40;99.90;;;;;;4979216;28;20228;-82
2023/01/06 09:28:01;;;;;;;7.03;6.23;;;8.40;99.90;;;;;;4963907;28;20743;-82
2023/01/06 09:30:29;;;;;;;10.43;7.50;;;8.50;99.90;;;;;;4975659;28;20245;-81
2023/01/06 09:32:56;;;;;;;9.57;7.10;;;8.50;99.90;;;;;;4979474;28;20227;-82
2023/01/06 09:35:22;;;;;;;7.70;6.90;;;8.50;99.90;;;;;;4965129;28;20231;-82
2023/01/06 09:37:50;;;;;;;8.77;6.73;;;8.50;99.90;;;;;;4980186;28;20233;-82
2023/01/06 09:40:19;;;;;;;8.37;7.17;;;8.50;99.90;;;;;;4960925;28;20240;-82
2023/01/06 09:42:56;;;;;;;6.10;5.33;;;8.50;99.90;;;;;;4979509;28;20231;-81
2023/01/06 09:45:33;;;;;;;6.40;5.30;;;8.50;99.90;;;;;;4981850;28;20232;-82
2023/01/06 09:48:03;;;;;;;6.40;5.53;;;8.50;99.90;;;;;;4971743;28;21568;-82
2023/01/06 09:50:35;;;;;;;6.93;5.73;;;8.50;99.90;;;;;;4980079;28;20861;-82
2023/01/06 09:53:06;;;;;;;7.13;5.27;;;8.50;99.90;;;;;;4978553;28;20341;-82
2023/01/06 09:55:38;;;;;;;10.23;5.83;;;8.50;99.90;;;;;;4977648;28;20781;-82
2023/01/06 09:58:09;;;;;;;7.50;5.60;;;8.50;99.90;;;;;;4976880;28;20227;-82
2023/01/06 10:00:41;;;;;;;6.67;4.90;;;8.50;99.90;;;;;;4976247;28;20233;-82
2023/01/06 10:03:13;;;;;;;5.97;4.60;;;8.50;99.90;;;;;;4967144;28;20229;-82
2023/01/06 10:05:48;;;;;;;5.20;4.40;;;8.50;99.90;;;;;;4977485;28;20240;-82
2023/01/06 10:08:23;;;;;;;6.27;4.90;;;8.50;99.90;;;;;;4982983;28;20242;-80
2023/01/06 10:11:01;;;;;;;6.97;4.10;;;8.50;99.90;;;;;;4968154;28;20243;-80
2023/01/06 10:13:43;;;;;;;6.93;5.43;;;8.50;99.90;;;;;;4984557;28;20227;-81
2023/01/06 10:16:20;;;;;;;4.43;3.80;;;8.60;99.90;;;;;;4985294;28;20236;-80
2023/01/06 10:18:54;;;;;;;4.53;3.77;;;8.60;99.90;;;;;;4967404;28;20228;-81
2023/01/06 10:21:28;;;;;;;4.00;3.43;;;8.60;99.90;;;;;;4985528;28;20225;-81
2023/01/06 10:24:08;;;;;;;4.30;3.13;;;8.60;99.90;;;;;;4967634;28;20239;-80
2023/01/06 10:26:42;;;;;;;3.53;3.00;;;8.60;99.90;;;;;;4986761;28;20742;-80
2023/01/06 10:29:14;;;;;;;5.00;3.07;;;8.60;99.90;;;;;;4968948;28;20225;-80
2023/01/06 10:31:45;;;;;;;3.60;3.10;;;8.60;99.90;;;;;;4968983;28;20233;-80
2023/01/06 10:34:19;;;;;;;4.57;3.20;;;8.70;99.90;;;;;;4967879;28;20239;-81
2023/01/06 10:36:51;;;;;;;4.17;3.37;;;8.70;99.90;;;;;;4969036;28;20308;-80
2023/01/06 10:39:21;;;;;;;4.47;3.40;;;8.70;99.90;;;;;;4968458;28;21015;-81
2023/01/06 10:42:54;;;;;;;4.00;3.20;;;8.70;99.90;;;;;;4986957;28;20224;-82
2023/01/06 10:44:46;;;;;;;3.50;3.00;;;8.70;99.90;;;;;;4985612;28;20729;-81
2023/01/06 10:47:20;;;;;;;3.57;3.27;;;8.80;99.90;;;;;;4986262;28;20725;-81
2023/01/06 10:49:49;;;;;;;4.60;3.40;;;8.80;99.90;;;;;;4968087;28;20240;-81
2023/01/06 10:52:16;;;;;;;4.07;3.20;;;8.90;99.90;;;;;;4967761;28;20238;-81
2023/01/06 10:54:44;;;;;;;3.87;3.47;;;8.90;99.90;;;;;;4985416;28;20238;-81
2023/01/06 10:57:17;;;;;;;3.77;3.10;;;8.90;99.90;;;;;;4967862;28;20225;-81
2023/01/06 11:00:17;;;;;;;3.73;3.30;;;8.90;99.90;;;;;;4967503;28;20248;-81
2023/01/06 11:02:47;;;;;;;5.17;3.40;;;8.90;99.90;;;;;;4965040;28;20830;-81
2023/01/06 11:05:16;;;;;;;11.53;3.80;;;8.90;99.90;;;;;;4967377;28;20711;-81
2023/01/06 11:07:56;;;;;;;7.80;3.93;;;9.00;99.90;;;;;;4968570;28;20257;-80
2023/01/06 11:10:34;;;;;;;8.33;3.87;;;8.90;99.90;;;;;;4986019;28;20239;-80
2023/01/06 11:13:04;;;;;;;5.83;3.70;;;9.00;99.90;;;;;;4985405;28;20248;-80
2023/01/06 11:15:38;;;;;;;6.97;3.60;;;8.90;99.90;;;;;;4988629;28;20315;-81
2023/01/06 11:18:20;;;;;;;4.80;3.90;;;8.90;99.90;;;;;;4988865;28;20260;-80
2023/01/06 11:21:02;;;;;;;4.67;4.13;;;8.90;99.90;;;;;;4988995;28;20239;-80
2023/01/06 11:23:29;;;;;;;4.20;3.10;;;8.90;99.90;;;;;;4970237;28;20228;-80
2023/01/06 11:26:12;;;;;;;5.57;3.00;;;8.90;99.90;;;;;;4988880;28;20258;-80
2023/01/06 11:28:39;;;;;;;4.53;2.70;;;8.90;99.90;;;;;;4970808;28;20321;-80
2023/01/06 11:31:09;;;;;;;1.97;1.77;;;8.90;99.90;;;;;;4987667;28;20323;-80
2023/01/06 11:33:46;;;;;;;2.43;1.63;;;8.90;99.90;;;;;;4987176;28;20279;-80
2023/01/06 11:36:15;;;;;;;1.50;1.40;;;8.90;99.90;;;;;;4969784;28;20239;-80
2023/01/06 11:38:46;;;;;;;1.20;1.00;;;8.90;99.90;;;;;;4988626;28;20824;-80
2023/01/06 11:41:23;;;;;;;2.40;1.00;;;8.90;99.90;;;;;;4989692;28;20237;-81
2023/01/06 11:43:50;;;;;;;2.30;0.87;;;8.90;99.90;;;;;;4967705;28;20234;-80
2023/01/06 11:46:22;;;;;;;0.87;0.80;;;8.90;99.90;;;;;;4969876;28;20242;-81
2023/01/06 11:49:00;;;;;;;2.70;1.17;;;8.90;99.90;;;;;;4968923;28;20243;-80
2023/01/06 11:51:46;;;;;;;1.37;1.00;;;9.00;99.90;;;;;;4976222;28;20663;-81
2023/01/06 11:54:27;;;;;;;2.57;1.30;;;9.00;99.90;;;;;;4987191;28;20235;-80
2023/01/06 11:57:01;;;;;;;1.77;0.87;;;9.10;99.90;;;;;;4989153;28;20269;-81
2023/01/06 11:59:33;;;;;;;1.57;0.80;;;9.10;99.90;;;;;;4968849;28;20224;-80
2023/01/06 12:02:00;;;;;;;1.60;0.80;;;9.10;99.90;;;;;;4951328;28;20251;-84
2023/01/06 12:04:34;;;;;;;2.80;0.60;;;9.10;99.90;;;;;;4950834;28;20235;-82
2023/01/06 12:07:10;;;;;;;2.63;0.70;;;9.10;99.90;;;;;;4969829;28;21039;-80
2023/01/06 12:09:41;;;;;;;3.13;0.87;;;9.00;99.90;;;;;;4988925;28;20220;-82
2023/01/06 12:12:11;;;;;;;2.70;0.93;;;8.90;99.90;;;;;;4988778;28;20241;-83
2023/01/06 12:14:39;;;;;;;5.13;0.97;;;8.90;99.90;;;;;;4988325;28;20236;-81
2023/01/06 12:17:11;;;;;;;2.73;0.80;;;8.80;99.90;;;;;;4988868;28;20315;-83
2023/01/06 12:19:44;;;;;;;1.73;0.80;;;8.80;99.90;;;;;;4969710;28;20235;-80
2023/01/06 12:22:21;;;;;;;4.93;1.07;;;8.70;99.90;;;;;;4988349;28;20719;-80
2023/01/06 12:24:51;;;;;;;2.73;1.03;;;8.70;99.90;;;;;;4988532;28;20741;-80
2023/01/06 12:27:27;;;;;;;4.67;1.20;;;8.70;99.90;;;;;;4989295;28;20276;-80
2023/01/06 12:29:58;;;;;;;3.37;0.90;;;8.70;99.90;;;;;;4972877;28;20235;-80
2023/01/06 12:32:28;;;;;;;2.70;1.00;;;8.70;99.90;;;;;;4990414;28;20674;-82
2023/01/06 12:35:01;;;;;;;4.53;1.20;;;8.80;99.90;;;;;;4960079;28;20281;-80
2023/01/06 12:37:34;;;;;;;5.47;1.10;;;8.80;99.90;;;;;;4951487;28;20238;-80
2023/01/06 12:40:10;;;;;;;4.17;1.40;;;8.90;99.90;;;;;;4970481;28;20240;-81
2023/01/06 12:42:43;;;;;;;3.90;0.93;;;8.90;99.90;;;;;;4974706;28;20651;-81
2023/01/06 12:45:15;;;;;;;2.53;0.97;;;9.00;99.90;;;;;;4971316;28;20511;-82
2023/01/06 12:47:44;;;;;;;4.10;1.27;;;9.00;99.90;;;;;;4971748;28;20247;-81
2023/01/06 12:50:19;;;;;;;4.27;1.00;;;9.00;99.90;;;;;;4988932;28;20232;-81
2023/01/06 12:52:53;;;;;;;3.53;1.10;;;9.10;99.90;;;;;;4979056;28;20313;-81
2023/01/06 12:55:28;;;;;;;3.10;1.00;;;9.00;99.90;;;;;;4989604;28;20239;-82
2023/01/06 12:58:02;;;;;;;5.70;1.10;;;9.00;99.90;;;;;;4990111;28;20722;-81
2023/01/06 13:00:41;;;;;;;3.23;1.07;;;8.90;99.90;;;;;;4972256;28;20899;-81
2023/01/06 13:03:49;;;;;;;4.77;1.23;;;8.90;99.90;;;;;;4990058;28;20231;-81
2023/01/06 13:06:31;;;;;;;5.00;1.53;;;8.80;99.90;;;;;;4959237;28;20241;-81
2023/01/06 13:09:13;;;;;;;4.90;1.40;;;8.80;99.90;;;;;;4969088;28;20232;-80